sensor_id;sensor_type;location;lat;lon;timestamp;temperature;humidity
20081;DHT22;10200;49.232;9.222;2022-10-23T00:00:36;12.30;99.90
20081;DHT22;10200;49.232;9.222;2022-10-23T00:03:02;12.40;99.90
20081;DHT22;10200;49.232;9.222;2022-10-23T00:05:28;12.30;99.90
20081;DHT22;10200;49.232;9.222;2022-10-23T00:07:56;12.30;99.90
20081;DHT22;10200;49.232;9.222;2022-10-23T00:10:24;12.20;99.90
20081;DHT22;10200;49.232;9.222;2022-10-23T00:12:51;12.20;99.90
20081;DHT22;10200;49.232;9.222;2022-10-23T00:15:19;12.20;99.90
20081;DHT22;10200;49.232;9.222;2022-10-23T00:17:45;12.20;99.90
20081;DHT22;10200;49.232;9.222;2022-10-23T00:20:11;12.20;99.90
20081;DHT22;10200;49.232;9.222;2022-10-23T00:22:37;12.20;99.90
20081;DHT22;10200;49.232;9.222;2022-10-23T00:25:07;12.20;99.90
20081;DHT22;10200;49.232;9.222;2022-10-23T00:27:34;12.10;99.90
20081;DHT22;10200;49.232;9.222;2022-10-23T00:30:00;12.10;99.90
20081;DHT22;10200;49.232;9.222;2022-10-23T00:32:26;12.10;99.90
20081;DHT22;10200;49.232;9.222;2022-10-23T00:34:52;12.10;99.90
20081;DHT22;10200;49.232;9.222;2022-10-23T00:37:18;12.10;99.90
20081;DHT22;10200;49.232;9.222;2022-10-23T00:39:43;12.10;99.90
20081;DHT22;10200;49.232;9.222;2022-10-23T00:42:16;12.20;99.90
20081;DHT22;10200;49.232;9.222;2022-10-23T00:47:07;12.10;99.90
20081;DHT22;10200;49.232;9.222;2022-10-23T00:49:33;12.10;99.90
20081;DHT22;10200;49.232;9.222;2022-10-23T00:52:02;12.10;99.90
20081;DHT22;10200;49.232;9.222;2022-10-23T00:54:33;12.10;99.90
20081;DHT22;10200;49.232;9.222;2022-10-23T00:57:03;12.00;99.90
20081;DHT22;10200;49.232;9.222;2022-10-23T00:59:29;12.10;99.90
20081;DHT22;10200;49.232;9.222;2022-10-23T01:01:55;12.10;99.90
20081;DHT22;10200;49.232;9.222;2022-10-23T01:04:21;12.10;99.90
20081;DHT22;10200;49.232;9.222;2022-10-23T01:06:58;12.10;99.90
20081;DHT22;10200;49.232;9.222;2022-10-23T01:09:53;12.10;99.90
20081;DHT22;10200;49.232;9.222;2022-10-23T01:12:43;12.10;99.90
20081;DHT22;10200;49.232;9.222;2022-10-23T01:15:34;12.10;99.90
20081;DHT22;10200;49.232;9.222;2022-10-23T01:18:12;12.10;99.90
20081;DHT22;10200;49.232;9.222;2022-10-23T01:20:46;12.10;99.90
20081;DHT22;10200;49.232;9.222;2022-10-23T01:23:46;12.00;99.90
20081;DHT22;10200;49.232;9.222;2022-10-23T01:28:44;12.00;99.90
20081;DHT22;10200;49.232;9.222;2022-10-23T01:31:16;11.90;99.90
20081;DHT22;10200;49.232;9.222;2022-10-23T01:33:49;11.90;99.90
20081;DHT22;10200;49.232;9.222;2022-10-23T01:36:19;11.90;99.90
20081;DHT22;10200;49.232;9.222;2022-10-23T01:39:03;11.90;99.90
20081;DHT22;10200;49.232;9.222;2022-10-23T01:41:36;11.90;99.90
20081;DHT22;10200;49.232;9.222;2022-10-23T01:44:11;11.80;99.90
20081;DHT22;10200;49.232;9.222;2022-10-23T01:46:38;11.70;99.90
20081;DHT22;10200;49.232;9.222;2022-10-23T01:49:07;11.70;99.90
20081;DHT22;10200;49.232;9.222;2022-10-23T01:51:35;11.60;99.90
20081;DHT22;10200;49.232;9.222;2022-10-23T01:54:06;11.60;99.90
20081;DHT22;10200;49.232;9.222;2022-10-23T01:56:34;11.60;99.90
20081;DHT22;10200;49.232;9.222;2022-10-23T01:59:04;11.60;99.90
20081;DHT22;10200;49.232;9.222;2022-10-23T02:01:34;11.60;99.90
20081;DHT22;10200;49.232;9.222;2022-10-23T02:04:02;11.60;99.90
20081;DHT22;10200;49.232;9.222;2022-10-23T02:06:30;11.60;99.90
20081;DHT22;10200;49.232;9.222;2022-10-23T02:08:56;11.50;99.90
20081;DHT22;10200;49.232;9.222;2022-10-23T02:11:22;11.50;99.90
20081;DHT22;10200;49.232;9.222;2022-10-23T02:14:12;11.50;99.90
20081;DHT22;10200;49.232;9.222;2022-10-23T02:16:52;11.50;99.90
20081;DHT22;10200;49.232;9.222;2022-10-23T02:21:52;11.40;99.90
20081;DHT22;10200;49.232;9.222;2022-10-23T02:24:26;11.50;99.90
20081;DHT22;10200;49.232;9.222;2022-10-23T02:26:57;11.40;99.90
20081;DHT22;10200;49.232;9.222;2022-10-23T02:29:33;11.40;99.90
20081;DHT22;10200;49.232;9.222;2022-10-23T02:32:00;11.40;99.90
20081;DHT22;10200;49.232;9.222;2022-10-23T02:34:26;11.40;99.90
20081;DHT22;10200;49.232;9.222;2022-10-23T02:36:52;11.40;99.90
20081;DHT22;10200;49.232;9.222;2022-10-23T02:39:19;11.40;99.90
20081;DHT22;10200;49.232;9.222;2022-10-23T02:41:58;11.50;99.90
20081;DHT22;10200;49.232;9.222;2022-10-23T02:44:54;11.40;99.90
20081;DHT22;10200;49.232;9.222;2022-10-23T02:52:55;11.40;99.90
20081;DHT22;10200;49.232;9.222;2022-10-23T02:57:56;11.50;99.90
20081;DHT22;10200;49.232;9.222;2022-10-23T03:00:24;11.50;99.90
20081;DHT22;10200;49.232;9.222;2022-10-23T03:03:01;11.60;99.90
20081;DHT22;10200;49.232;9.222;2022-10-23T03:05:31;11.60;99.90
20081;DHT22;10200;49.232;9.222;2022-10-23T03:07:57;11.60;99.90
20081;DHT22;10200;49.232;9.222;2022-10-23T03:10:23;11.60;99.90
20081;DHT22;10200;49.232;9.222;2022-10-23T03:12:49;11.60;99.90
20081;DHT22;10200;49.232;9.222;2022-10-23T03:15:15;11.60;99.90
20081;DHT22;10200;49.232;9.222;2022-10-23T03:17:42;11.70;99.90
20081;DHT22;10200;49.232;9.222;2022-10-23T03:20:08;11.60;99.90
20081;DHT22;10200;49.232;9.222;2022-10-23T03:22:34;11.60;99.90
20081;DHT22;10200;49.232;9.222;2022-10-23T03:25:00;11.60;99.90
20081;DHT22;10200;49.232;9.222;2022-10-23T03:27:25;11.60;99.90
20081;DHT22;10200;49.232;9.222;2022-10-23T03:29:51;11.50;99.90
20081;DHT22;10200;49.232;9.222;2022-10-23T03:32:16;11.50;99.90
20081;DHT22;10200;49.232;9.222;2022-10-23T03:34:42;11.50;99.90
20081;DHT22;10200;49.232;9.222;2022-10-23T03:37:08;11.50;99.90
20081;DHT22;10200;49.232;9.222;2022-10-23T03:39:33;11.50;99.90
20081;DHT22;10200;49.232;9.222;2022-10-23T03:41:59;11.40;99.90
20081;DHT22;10200;49.232;9.222;2022-10-23T03:44:25;11.40;99.90
20081;DHT22;10200;49.232;9.222;2022-10-23T03:46:50;11.40;99.90
20081;DHT22;10200;49.232;9.222;2022-10-23T03:49:16;11.50;99.90
20081;DHT22;10200;49.232;9.222;2022-10-23T03:51:42;11.40;99.90
20081;DHT22;10200;49.232;9.222;2022-10-23T03:54:09;11.40;99.90
20081;DHT22;10200;49.232;9.222;2022-10-23T03:56:35;11.40;99.90
20081;DHT22;10200;49.232;9.222;2022-10-23T03:59:01;11.40;99.90
20081;DHT22;10200;49.232;9.222;2022-10-23T04:01:26;11.40;99.90
20081;DHT22;10200;49.232;9.222;2022-10-23T04:03:52;11.40;99.90
20081;DHT22;10200;49.232;9.222;2022-10-23T04:06:18;11.30;99.90
20081;DHT22;10200;49.232;9.222;2022-10-23T04:08:43;11.30;99.90
20081;DHT22;10200;49.232;9.222;2022-10-23T04:11:09;11.30;99.90
20081;DHT22;10200;49.232;9.222;2022-10-23T04:13:35;11.30;99.90
20081;DHT22;10200;49.232;9.222;2022-10-23T04:16:01;11.20;99.90
20081;DHT22;10200;49.232;9.222;2022-10-23T04:18:26;11.20;99.90
20081;DHT22;10200;49.232;9.222;2022-10-23T04:20:52;11.20;99.90
20081;DHT22;10200;49.232;9.222;2022-10-23T04:23:18;11.20;99.90
20081;DHT22;10200;49.232;9.222;2022-10-23T04:25:44;11.20;99.90
20081;DHT22;10200;49.232;9.222;2022-10-23T04:28:10;11.20;99.90
20081;DHT22;10200;49.232;9.222;2022-10-23T04:30:35;11.10;99.90
20081;DHT22;10200;49.232;9.222;2022-10-23T04:33:01;11.20;99.90
20081;DHT22;10200;49.232;9.222;2022-10-23T04:35:27;11.10;99.90
20081;DHT22;10200;49.232;9.222;2022-10-23T04:37:52;11.10;99.90
20081;DHT22;10200;49.232;9.222;2022-10-23T04:40:18;11.10;99.90
20081;DHT22;10200;49.232;9.222;2022-10-23T04:42:43;11.10;99.90
20081;DHT22;10200;49.232;9.222;2022-10-23T04:45:09;11.10;99.90
20081;DHT22;10200;49.232;9.222;2022-10-23T04:47:35;11.00;99.90
20081;DHT22;10200;49.232;9.222;2022-10-23T04:50:00;11.00;99.90
20081;DHT22;10200;49.232;9.222;2022-10-23T04:52:26;10.90;99.90
20081;DHT22;10200;49.232;9.222;2022-10-23T04:54:52;10.90;99.90
20081;DHT22;10200;49.232;9.222;2022-10-23T04:57:17;10.90;99.90
20081;DHT22;10200;49.232;9.222;2022-10-23T04:59:43;10.90;99.90
20081;DHT22;10200;49.232;9.222;2022-10-23T05:02:08;10.90;99.90
20081;DHT22;10200;49.232;9.222;2022-10-23T05:04:34;10.90;99.90
20081;DHT22;10200;49.232;9.222;2022-10-23T05:07:00;10.80;99.90
20081;DHT22;10200;49.232;9.222;2022-10-23T05:09:26;10.80;99.90
20081;DHT22;10200;49.232;9.222;2022-10-23T05:11:51;10.80;99.90
20081;DHT22;10200;49.232;9.222;2022-10-23T05:14:17;10.80;99.90
20081;DHT22;10200;49.232;9.222;2022-10-23T05:16:56;10.80;99.90
20081;DHT22;10200;49.232;9.222;2022-10-23T05:19:27;10.90;99.90
20081;DHT22;10200;49.232;9.222;2022-10-23T05:21:54;10.90;99.90
20081;DHT22;10200;49.232;9.222;2022-10-23T05:24:23;10.90;99.90
20081;DHT22;10200;49.232;9.222;2022-10-23T05:26:50;10.90;99.90
20081;DHT22;10200;49.232;9.222;2022-10-23T05:29:18;10.90;99.90
20081;DHT22;10200;49.232;9.222;2022-10-23T05:31:43;10.90;99.90
20081;DHT22;10200;49.232;9.222;2022-10-23T05:34:10;10.90;99.90
20081;DHT22;10200;49.232;9.222;2022-10-23T05:36:37;10.90;99.90
20081;DHT22;10200;49.232;9.222;2022-10-23T05:39:04;10.90;99.90
20081;DHT22;10200;49.232;9.222;2022-10-23T05:41:29;11.00;99.90
20081;DHT22;10200;49.232;9.222;2022-10-23T05:43:55;11.00;99.90
20081;DHT22;10200;49.232;9.222;2022-10-23T05:46:21;11.00;99.90
20081;DHT22;10200;49.232;9.222;2022-10-23T05:48:51;11.00;99.90
20081;DHT22;10200;49.232;9.222;2022-10-23T05:51:18;11.10;99.90
20081;DHT22;10200;49.232;9.222;2022-10-23T05:53:51;11.10;99.90
20081;DHT22;10200;49.232;9.222;2022-10-23T05:56:17;11.10;99.90
20081;DHT22;10200;49.232;9.222;2022-10-23T05:58:42;11.20;99.90
20081;DHT22;10200;49.232;9.222;2022-10-23T06:01:10;11.20;99.90
20081;DHT22;10200;49.232;9.222;2022-10-23T06:03:37;11.20;99.90
20081;DHT22;10200;49.232;9.222;2022-10-23T06:06:03;11.20;99.90
20081;DHT22;10200;49.232;9.222;2022-10-23T06:08:30;11.20;99.90
20081;DHT22;10200;49.232;9.222;2022-10-23T06:10:55;11.20;99.90
20081;DHT22;10200;49.232;9.222;2022-10-23T06:13:21;11.20;99.90
20081;DHT22;10200;49.232;9.222;2022-10-23T06:15:47;11.20;99.90
20081;DHT22;10200;49.232;9.222;2022-10-23T06:18:12;11.20;99.90
20081;DHT22;10200;49.232;9.222;2022-10-23T06:20:38;11.20;99.90
20081;DHT22;10200;49.232;9.222;2022-10-23T06:23:04;11.30;99.90
20081;DHT22;10200;49.232;9.222;2022-10-23T06:25:30;11.30;99.90
20081;DHT22;10200;49.232;9.222;2022-10-23T06:27:56;11.30;99.90
20081;DHT22;10200;49.232;9.222;2022-10-23T06:30:22;11.30;99.90
20081;DHT22;10200;49.232;9.222;2022-10-23T06:32:47;11.30;99.90
20081;DHT22;10200;49.232;9.222;2022-10-23T06:35:13;11.40;99.90
20081;DHT22;10200;49.232;9.222;2022-10-23T06:37:39;11.40;99.90
20081;DHT22;10200;49.232;9.222;2022-10-23T06:40:05;11.50;99.90
20081;DHT22;10200;49.232;9.222;2022-10-23T06:42:32;11.50;99.90
20081;DHT22;10200;49.232;9.222;2022-10-23T06:44:58;11.60;99.90
20081;DHT22;10200;49.232;9.222;2022-10-23T06:47:23;11.70;99.90
20081;DHT22;10200;49.232;9.222;2022-10-23T06:49:49;11.80;99.90
20081;DHT22;10200;49.232;9.222;2022-10-23T06:52:15;11.90;99.90
20081;DHT22;10200;49.232;9.222;2022-10-23T06:54:40;11.90;99.90
20081;DHT22;10200;49.232;9.222;2022-10-23T06:57:06;12.10;99.90
20081;DHT22;10200;49.232;9.222;2022-10-23T06:59:31;12.20;99.90
20081;DHT22;10200;49.232;9.222;2022-10-23T07:01:57;12.20;99.90
20081;DHT22;10200;49.232;9.222;2022-10-23T07:04:22;12.30;99.90
20081;DHT22;10200;49.232;9.222;2022-10-23T07:06:48;12.40;99.90
20081;DHT22;10200;49.232;9.222;2022-10-23T07:09:13;12.40;99.90
20081;DHT22;10200;49.232;9.222;2022-10-23T07:11:39;12.50;99.90
20081;DHT22;10200;49.232;9.222;2022-10-23T07:14:05;12.50;99.90
20081;DHT22;10200;49.232;9.222;2022-10-23T07:16:30;12.60;99.90
20081;DHT22;10200;49.232;9.222;2022-10-23T07:18:57;12.60;99.90
20081;DHT22;10200;49.232;9.222;2022-10-23T07:21:28;12.70;99.90
20081;DHT22;10200;49.232;9.222;2022-10-23T07:23:56;12.80;99.90
20081;DHT22;10200;49.232;9.222;2022-10-23T07:26:21;12.90;99.90
20081;DHT22;10200;49.232;9.222;2022-10-23T07:28:47;12.90;99.90
20081;DHT22;10200;49.232;9.222;2022-10-23T07:31:14;13.00;99.90
20081;DHT22;10200;49.232;9.222;2022-10-23T07:33:40;13.10;99.90
20081;DHT22;10200;49.232;9.222;2022-10-23T07:36:07;13.20;99.90
20081;DHT22;10200;49.232;9.222;2022-10-23T07:38:33;13.20;99.90
20081;DHT22;10200;49.232;9.222;2022-10-23T07:40:59;13.40;99.90
20081;DHT22;10200;49.232;9.222;2022-10-23T07:43:25;13.60;99.90
20081;DHT22;10200;49.232;9.222;2022-10-23T07:45:51;13.80;99.90
20081;DHT22;10200;49.232;9.222;2022-10-23T07:48:17;13.90;99.90
20081;DHT22;10200;49.232;9.222;2022-10-23T07:50:43;14.00;99.90
20081;DHT22;10200;49.232;9.222;2022-10-23T07:53:18;14.10;99.90
20081;DHT22;10200;49.232;9.222;2022-10-23T07:58:38;14.50;99.90
20081;DHT22;10200;49.232;9.222;2022-10-23T08:01:14;14.70;99.90
20081;DHT22;10200;49.232;9.222;2022-10-23T08:03:40;15.00;99.90
20081;DHT22;10200;49.232;9.222;2022-10-23T08:06:05;15.20;99.90
20081;DHT22;10200;49.232;9.222;2022-10-23T08:08:31;15.30;99.90
20081;DHT22;10200;49.232;9.222;2022-10-23T08:10:56;15.30;99.90
20081;DHT22;10200;49.232;9.222;2022-10-23T08:13:22;15.40;99.90
20081;DHT22;10200;49.232;9.222;2022-10-23T08:15:49;15.60;99.90
20081;DHT22;10200;49.232;9.222;2022-10-23T08:18:15;15.80;99.90
20081;DHT22;10200;49.232;9.222;2022-10-23T08:20:42;16.20;99.90
20081;DHT22;10200;49.232;9.222;2022-10-23T08:23:09;16.50;99.90
20081;DHT22;10200;49.232;9.222;2022-10-23T08:25:37;16.90;99.90
20081;DHT22;10200;49.232;9.222;2022-10-23T08:28:03;17.30;99.90
20081;DHT22;10200;49.232;9.222;2022-10-23T08:30:29;17.50;99.90
20081;DHT22;10200;49.232;9.222;2022-10-23T08:32:55;17.80;99.90
20081;DHT22;10200;49.232;9.222;2022-10-23T08:35:21;18.00;99.90
20081;DHT22;10200;49.232;9.222;2022-10-23T08:37:47;18.10;99.90
20081;DHT22;10200;49.232;9.222;2022-10-23T08:40:18;18.40;99.90
20081;DHT22;10200;49.232;9.222;2022-10-23T08:42:49;18.50;99.90
20081;DHT22;10200;49.232;9.222;2022-10-23T08:48:32;18.80;99.20
20081;DHT22;10200;49.232;9.222;2022-10-23T08:51:06;18.70;99.10
20081;DHT22;10200;49.232;9.222;2022-10-23T08:53:43;18.70;97.10
20081;DHT22;10200;49.232;9.222;2022-10-23T08:56:37;18.60;96.90
20081;DHT22;10200;49.232;9.222;2022-10-23T09:01:57;18.50;98.90
20081;DHT22;10200;49.232;9.222;2022-10-23T09:04:24;18.50;98.30
20081;DHT22;10200;49.232;9.222;2022-10-23T09:17:24;18.40;99.50
20081;DHT22;10200;49.232;9.222;2022-10-23T09:19:57;18.30;99.90
20081;DHT22;10200;49.232;9.222;2022-10-23T09:22:24;18.40;99.90
20081;DHT22;10200;49.232;9.222;2022-10-23T09:24:50;18.40;99.90
20081;DHT22;10200;49.232;9.222;2022-10-23T09:27:16;18.30;99.90
20081;DHT22;10200;49.232;9.222;2022-10-23T09:29:47;18.20;99.90
20081;DHT22;10200;49.232;9.222;2022-10-23T09:32:13;18.20;99.90
20081;DHT22;10200;49.232;9.222;2022-10-23T09:34:52;18.10;99.90
20081;DHT22;10200;49.232;9.222;2022-10-23T09:37:25;18.10;99.90
20081;DHT22;10200;49.232;9.222;2022-10-23T09:40:17;18.10;99.90
20081;DHT22;10200;49.232;9.222;2022-10-23T09:45:32;18.10;99.90
20081;DHT22;10200;49.232;9.222;2022-10-23T09:48:16;18.10;99.90
20081;DHT22;10200;49.232;9.222;2022-10-23T09:51:03;18.20;99.90
20081;DHT22;10200;49.232;9.222;2022-10-23T09:53:54;18.30;99.90
20081;DHT22;10200;49.232;9.222;2022-10-23T10:01:46;18.50;99.90
20081;DHT22;10200;49.232;9.222;2022-10-23T10:04:12;18.50;99.90
20081;DHT22;10200;49.232;9.222;2022-10-23T10:06:38;18.50;99.90
20081;DHT22;10200;49.232;9.222;2022-10-23T10:09:22;18.50;99.90
20081;DHT22;10200;49.232;9.222;2022-10-23T10:11:53;18.50;99.90
20081;DHT22;10200;49.232;9.222;2022-10-23T10:23:21;18.60;99.90
20081;DHT22;10200;49.232;9.222;2022-10-23T10:28:54;18.70;99.90
20081;DHT22;10200;49.232;9.222;2022-10-23T10:34:20;18.70;99.90
20081;DHT22;10200;49.232;9.222;2022-10-23T10:36:52;18.80;99.90
20081;DHT22;10200;49.232;9.222;2022-10-23T10:39:51;18.80;99.90
20081;DHT22;10200;49.232;9.222;2022-10-23T10:56:03;19.10;98.10
20081;DHT22;10200;49.232;9.222;2022-10-23T11:01:27;19.20;98.20
20081;DHT22;10200;49.232;9.222;2022-10-23T11:04:12;19.20;97.50
20081;DHT22;10200;49.232;9.222;2022-10-23T11:06:40;19.30;97.00
20081;DHT22;10200;49.232;9.222;2022-10-23T11:09:29;19.40;96.40
20081;DHT22;10200;49.232;9.222;2022-10-23T11:11:55;19.40;96.40
20081;DHT22;10200;49.232;9.222;2022-10-23T11:14:25;19.50;95.90
20081;DHT22;10200;49.232;9.222;2022-10-23T11:17:08;19.60;95.40
20081;DHT22;10200;49.232;9.222;2022-10-23T11:19:40;19.60;94.80
20081;DHT22;10200;49.232;9.222;2022-10-23T11:30:24;19.80;94.10
20081;DHT22;10200;49.232;9.222;2022-10-23T11:38:27;20.00;92.90
20081;DHT22;10200;49.232;9.222;2022-10-23T11:40:57;20.00;93.30
20081;DHT22;10200;49.232;9.222;2022-10-23T11:43:48;19.90;93.20
20081;DHT22;10200;49.232;9.222;2022-10-23T11:46:31;19.80;93.50
20081;DHT22;10200;49.232;9.222;2022-10-23T11:48:58;19.70;94.00
20081;DHT22;10200;49.232;9.222;2022-10-23T11:54:21;19.70;94.50
20081;DHT22;10200;49.232;9.222;2022-10-23T11:59:33;19.60;95.00
20081;DHT22;10200;49.232;9.222;2022-10-23T12:02:01;19.60;94.90
20081;DHT22;10200;49.232;9.222;2022-10-23T12:04:40;19.60;95.20
20081;DHT22;10200;49.232;9.222;2022-10-23T12:07:23;19.60;95.40
20081;DHT22;10200;49.232;9.222;2022-10-23T12:09:59;19.60;95.70
20081;DHT22;10200;49.232;9.222;2022-10-23T12:14:53;19.70;96.90
20081;DHT22;10200;49.232;9.222;2022-10-23T12:17:34;19.70;97.50
20081;DHT22;10200;49.232;9.222;2022-10-23T12:39:32;19.90;99.60
20081;DHT22;10200;49.232;9.222;2022-10-23T12:41:58;19.90;99.70
20081;DHT22;10200;49.232;9.222;2022-10-23T12:44:25;19.90;99.50
20081;DHT22;10200;49.232;9.222;2022-10-23T12:47:01;19.90;99.70
20081;DHT22;10200;49.232;9.222;2022-10-23T12:49:30;20.00;99.90
20081;DHT22;10200;49.232;9.222;2022-10-23T12:52:03;20.00;99.90
20081;DHT22;10200;49.232;9.222;2022-10-23T12:54:31;20.10;99.70
20081;DHT22;10200;49.232;9.222;2022-10-23T12:56:56;20.20;99.80
20081;DHT22;10200;49.232;9.222;2022-10-23T12:59:32;20.20;99.20
20081;DHT22;10200;49.232;9.222;2022-10-23T13:02:00;20.20;99.60
20081;DHT22;10200;49.232;9.222;2022-10-23T13:06:53;20.20;99.00
20081;DHT22;10200;49.232;9.222;2022-10-23T13:09:28;20.20;99.10
20081;DHT22;10200;49.232;9.222;2022-10-23T13:11:55;20.10;99.50
20081;DHT22;10200;49.232;9.222;2022-10-23T13:14:30;20.10;99.40
20081;DHT22;10200;49.232;9.222;2022-10-23T13:17:02;20.10;99.60
20081;DHT22;10200;49.232;9.222;2022-10-23T13:19:29;20.00;99.70
20081;DHT22;10200;49.232;9.222;2022-10-23T13:21:54;20.10;99.90
20081;DHT22;10200;49.232;9.222;2022-10-23T13:24:21;20.10;99.90
20081;DHT22;10200;49.232;9.222;2022-10-23T13:26:49;20.30;99.90
20081;DHT22;10200;49.232;9.222;2022-10-23T13:29:21;20.30;99.00
20081;DHT22;10200;49.232;9.222;2022-10-23T13:31:48;20.50;98.90
20081;DHT22;10200;49.232;9.222;2022-10-23T13:34:23;20.60;98.70
20081;DHT22;10200;49.232;9.222;2022-10-23T13:36:52;20.60;97.70
20081;DHT22;10200;49.232;9.222;2022-10-23T13:39:26;20.60;97.00
20081;DHT22;10200;49.232;9.222;2022-10-23T13:41:52;20.50;96.80
20081;DHT22;10200;49.232;9.222;2022-10-23T13:44:20;20.50;96.90
20081;DHT22;10200;49.232;9.222;2022-10-23T13:46:46;20.50;97.20
20081;DHT22;10200;49.232;9.222;2022-10-23T13:49:13;20.50;97.20
20081;DHT22;10200;49.232;9.222;2022-10-23T13:51:51;20.60;97.30
20081;DHT22;10200;49.232;9.222;2022-10-23T13:54:25;20.60;97.70
20081;DHT22;10200;49.232;9.222;2022-10-23T13:56:51;20.60;97.30
20081;DHT22;10200;49.232;9.222;2022-10-23T13:59:18;20.60;97.30
20081;DHT22;10200;49.232;9.222;2022-10-23T14:01:45;20.70;97.30
20081;DHT22;10200;49.232;9.222;2022-10-23T14:04:12;20.70;97.50
20081;DHT22;10200;49.232;9.222;2022-10-23T14:06:39;20.70;96.70
20081;DHT22;10200;49.232;9.222;2022-10-23T14:09:06;20.70;96.30
20081;DHT22;10200;49.232;9.222;2022-10-23T14:11:33;20.70;95.70
20081;DHT22;10200;49.232;9.222;2022-10-23T14:13:59;20.70;95.60
20081;DHT22;10200;49.232;9.222;2022-10-23T14:16:25;20.60;95.60
20081;DHT22;10200;49.232;9.222;2022-10-23T14:18:50;20.50;95.90
20081;DHT22;10200;49.232;9.222;2022-10-23T14:21:19;20.40;96.40
20081;DHT22;10200;49.232;9.222;2022-10-23T14:23:45;20.30;96.90
20081;DHT22;10200;49.232;9.222;2022-10-23T14:26:14;20.30;97.30
20081;DHT22;10200;49.232;9.222;2022-10-23T14:28:40;20.20;97.80
20081;DHT22;10200;49.232;9.222;2022-10-23T14:31:11;20.20;98.70
20081;DHT22;10200;49.232;9.222;2022-10-23T14:33:37;20.20;99.50
20081;DHT22;10200;49.232;9.222;2022-10-23T14:36:03;20.10;99.90
20081;DHT22;10200;49.232;9.222;2022-10-23T14:38:29;20.10;99.90
20081;DHT22;10200;49.232;9.222;2022-10-23T14:40:55;20.10;99.90
20081;DHT22;10200;49.232;9.222;2022-10-23T14:43:21;20.00;99.90
20081;DHT22;10200;49.232;9.222;2022-10-23T14:45:47;20.00;99.90
20081;DHT22;10200;49.232;9.222;2022-10-23T14:48:12;20.00;99.90
20081;DHT22;10200;49.232;9.222;2022-10-23T14:50:43;20.00;99.90
20081;DHT22;10200;49.232;9.222;2022-10-23T14:53:09;20.00;99.90
20081;DHT22;10200;49.232;9.222;2022-10-23T14:55:35;20.00;99.90
20081;DHT22;10200;49.232;9.222;2022-10-23T14:58:00;19.90;99.90
20081;DHT22;10200;49.232;9.222;2022-10-23T15:00:26;19.90;99.90
20081;DHT22;10200;49.232;9.222;2022-10-23T15:02:51;19.80;99.90
20081;DHT22;10200;49.232;9.222;2022-10-23T15:05:17;19.80;99.90
20081;DHT22;10200;49.232;9.222;2022-10-23T15:07:43;19.70;99.90
20081;DHT22;10200;49.232;9.222;2022-10-23T15:10:09;19.70;99.90
20081;DHT22;10200;49.232;9.222;2022-10-23T15:12:35;19.60;99.90
20081;DHT22;10200;49.232;9.222;2022-10-23T15:15:02;19.60;99.90
20081;DHT22;10200;49.232;9.222;2022-10-23T15:17:27;19.50;99.90
20081;DHT22;10200;49.232;9.222;2022-10-23T15:19:53;19.50;99.90
20081;DHT22;10200;49.232;9.222;2022-10-23T15:22:18;19.40;99.90
20081;DHT22;10200;49.232;9.222;2022-10-23T15:24:45;19.40;99.90
20081;DHT22;10200;49.232;9.222;2022-10-23T15:27:12;19.30;99.90
20081;DHT22;10200;49.232;9.222;2022-10-23T15:29:37;19.20;99.90
20081;DHT22;10200;49.232;9.222;2022-10-23T15:32:04;19.20;99.90
20081;DHT22;10200;49.232;9.222;2022-10-23T15:34:30;19.20;99.90
20081;DHT22;10200;49.232;9.222;2022-10-23T15:36:57;19.10;99.90
20081;DHT22;10200;49.232;9.222;2022-10-23T15:39:26;19.10;99.90
20081;DHT22;10200;49.232;9.222;2022-10-23T15:41:54;19.10;99.90
20081;DHT22;10200;49.232;9.222;2022-10-23T15:44:23;19.10;99.90
20081;DHT22;10200;49.232;9.222;2022-10-23T15:46:49;19.10;99.90
20081;DHT22;10200;49.232;9.222;2022-10-23T15:49:14;19.10;99.90
20081;DHT22;10200;49.232;9.222;2022-10-23T15:51:41;19.00;99.90
20081;DHT22;10200;49.232;9.222;2022-10-23T15:54:10;19.00;99.90
20081;DHT22;10200;49.232;9.222;2022-10-23T15:56:37;18.90;99.90
20081;DHT22;10200;49.232;9.222;2022-10-23T15:59:03;18.90;99.90
20081;DHT22;10200;49.232;9.222;2022-10-23T16:01:28;18.90;99.90
20081;DHT22;10200;49.232;9.222;2022-10-23T16:03:54;18.90;99.90
20081;DHT22;10200;49.232;9.222;2022-10-23T16:06:20;18.80;99.90
20081;DHT22;10200;49.232;9.222;2022-10-23T16:08:45;18.80;99.90
20081;DHT22;10200;49.232;9.222;2022-10-23T16:11:14;18.70;99.90
20081;DHT22;10200;49.232;9.222;2022-10-23T16:13:40;18.70;99.90
20081;DHT22;10200;49.232;9.222;2022-10-23T16:16:07;18.60;99.90
20081;DHT22;10200;49.232;9.222;2022-10-23T16:18:32;18.50;99.90
20081;DHT22;10200;49.232;9.222;2022-10-23T16:20:58;18.40;99.90
20081;DHT22;10200;49.232;9.222;2022-10-23T16:23:23;18.40;99.90
20081;DHT22;10200;49.232;9.222;2022-10-23T16:25:49;18.30;99.90
20081;DHT22;10200;49.232;9.222;2022-10-23T16:28:15;18.20;99.90
20081;DHT22;10200;49.232;9.222;2022-10-23T16:30:41;18.20;99.90
20081;DHT22;10200;49.232;9.222;2022-10-23T16:33:08;18.00;99.90
20081;DHT22;10200;49.232;9.222;2022-10-23T16:35:33;17.90;99.90
20081;DHT22;10200;49.232;9.222;2022-10-23T16:38:00;17.90;99.90
20081;DHT22;10200;49.232;9.222;2022-10-23T16:40:25;17.80;99.90
20081;DHT22;10200;49.232;9.222;2022-10-23T16:42:51;17.80;99.90
20081;DHT22;10200;49.232;9.222;2022-10-23T16:45:17;17.80;99.90
20081;DHT22;10200;49.232;9.222;2022-10-23T16:47:42;17.80;99.90
20081;DHT22;10200;49.232;9.222;2022-10-23T16:50:08;17.70;99.90
20081;DHT22;10200;49.232;9.222;2022-10-23T16:52:34;17.70;99.90
20081;DHT22;10200;49.232;9.222;2022-10-23T16:54:59;17.60;99.90
20081;DHT22;10200;49.232;9.222;2022-10-23T16:57:25;17.60;99.90
20081;DHT22;10200;49.232;9.222;2022-10-23T16:59:52;17.60;99.90
20081;DHT22;10200;49.232;9.222;2022-10-23T17:02:18;17.60;99.90
20081;DHT22;10200;49.232;9.222;2022-10-23T17:04:43;17.60;99.90
20081;DHT22;10200;49.232;9.222;2022-10-23T17:07:09;17.60;99.90
20081;DHT22;10200;49.232;9.222;2022-10-23T17:09:37;17.50;99.90
20081;DHT22;10200;49.232;9.222;2022-10-23T17:12:03;17.50;99.90
20081;DHT22;10200;49.232;9.222;2022-10-23T17:14:29;17.50;99.90
20081;DHT22;10200;49.232;9.222;2022-10-23T17:16:57;17.50;99.90
20081;DHT22;10200;49.232;9.222;2022-10-23T17:19:25;17.60;99.90
20081;DHT22;10200;49.232;9.222;2022-10-23T17:21:52;17.50;99.90
20081;DHT22;10200;49.232;9.222;2022-10-23T17:24:19;17.50;99.90
20081;DHT22;10200;49.232;9.222;2022-10-23T17:26:45;17.50;99.90
20081;DHT22;10200;49.232;9.222;2022-10-23T17:29:11;17.50;99.90
20081;DHT22;10200;49.232;9.222;2022-10-23T17:31:41;17.50;99.90
20081;DHT22;10200;49.232;9.222;2022-10-23T17:34:11;17.50;99.90
20081;DHT22;10200;49.232;9.222;2022-10-23T17:36:40;17.50;99.90